sensor_id;sensor_type;location;lat;lon;timestamp;pressure;altitude;pressure_sealevel;temperature
15544;BMP180;7873;52.230;12.856;2022-07-30T00:00:44;100811.56;;;25.84
15544;BMP180;7873;52.230;12.856;2022-07-30T00:03:12;100816.16;;;25.83
15544;BMP180;7873;52.230;12.856;2022-07-30T00:05:39;100807.56;;;25.80
15544;BMP180;7873;52.230;12.856;2022-07-30T00:08:06;100797.41;;;25.82
15544;BMP180;7873;52.230;12.856;2022-07-30T00:10:33;100804.47;;;25.83
15544;BMP180;7873;52.230;12.856;2022-07-30T00:12:59;100801.97;;;25.81
15544;BMP180;7873;52.230;12.856;2022-07-30T00:15:26;100802.16;;;25.80
15544;BMP180;7873;52.230;12.856;2022-07-30T00:17:53;100814.63;;;25.81
15544;BMP180;7873;52.230;12.856;2022-07-30T00:20:21;100810.25;;;25.80
15544;BMP180;7873;52.230;12.856;2022-07-30T00:22:48;100810.25;;;25.80
15544;BMP180;7873;52.230;12.856;2022-07-30T00:25:16;100807.78;;;25.78
15544;BMP180;7873;52.230;12.856;2022-07-30T00:27:43;100805.88;;;25.79
15544;BMP180;7873;52.230;12.856;2022-07-30T00:30:11;100811.50;;;25.77
15544;BMP180;7873;52.230;12.856;2022-07-30T00:32:37;100806.09;;;25.77
15544;BMP180;7873;52.230;12.856;2022-07-30T00:35:05;100803.19;;;25.79
15544;BMP180;7873;52.230;12.856;2022-07-30T00:37:33;100809.44;;;25.79
15544;BMP180;7873;52.230;12.856;2022-07-30T00:40:00;100800.50;;;25.79
15544;BMP180;7873;52.230;12.856;2022-07-30T00:42:36;100801.06;;;25.74
15544;BMP180;7873;52.230;12.856;2022-07-30T00:45:03;100791.31;;;25.73
15544;BMP180;7873;52.230;12.856;2022-07-30T00:47:30;100793.19;;;25.73
15544;BMP180;7873;52.230;12.856;2022-07-30T00:49:57;100803.13;;;25.72
15544;BMP180;7873;52.230;12.856;2022-07-30T00:52:24;100803.97;;;25.73
15544;BMP180;7873;52.230;12.856;2022-07-30T00:54:52;100804.53;;;25.68
15544;BMP180;7873;52.230;12.856;2022-07-30T00:57:18;100797.47;;;25.67
15544;BMP180;7873;52.230;12.856;2022-07-30T00:59:45;100801.41;;;25.65
15544;BMP180;7873;52.230;12.856;2022-07-30T01:02:11;100811.53;;;25.63
15544;BMP180;7873;52.230;12.856;2022-07-30T01:04:38;100806.59;;;25.66
15544;BMP180;7873;52.230;12.856;2022-07-30T01:07:05;100809.88;;;25.62
15544;BMP180;7873;52.230;12.856;2022-07-30T01:09:31;100805.06;;;25.58
15544;BMP180;7873;52.230;12.856;2022-07-30T01:12:00;100814.63;;;25.60
15544;BMP180;7873;52.230;12.856;2022-07-30T01:14:27;100807.75;;;25.58
15544;BMP180;7873;52.230;12.856;2022-07-30T01:16:54;100803.41;;;25.57
15544;BMP180;7873;52.230;12.856;2022-07-30T01:19:24;100812.31;;;25.57
15544;BMP180;7873;52.230;12.856;2022-07-30T01:22:13;100813.09;;;25.51
15544;BMP180;7873;52.230;12.856;2022-07-30T01:24:43;100827.59;;;25.50
15544;BMP180;7873;52.230;12.856;2022-07-30T01:27:15;100828.63;;;25.49
15544;BMP180;7873;52.230;12.856;2022-07-30T01:29:43;100835.94;;;25.55
15544;BMP180;7873;52.230;12.856;2022-07-30T01:32:12;100836.56;;;25.57
15544;BMP180;7873;52.230;12.856;2022-07-30T01:34:39;100832.03;;;25.58
15544;BMP180;7873;52.230;12.856;2022-07-30T01:37:08;100827.84;;;25.55
15544;BMP180;7873;52.230;12.856;2022-07-30T01:39:36;100831.31;;;25.49
15544;BMP180;7873;52.230;12.856;2022-07-30T01:42:04;100826.31;;;25.46
15544;BMP180;7873;52.230;12.856;2022-07-30T01:44:36;100827.97;;;25.47
15544;BMP180;7873;52.230;12.856;2022-07-30T01:47:05;100820.44;;;25.43
15544;BMP180;7873;52.230;12.856;2022-07-30T01:49:35;100818.59;;;25.43
15544;BMP180;7873;52.230;12.856;2022-07-30T01:52:03;100812.81;;;25.46
15544;BMP180;7873;52.230;12.856;2022-07-30T01:54:32;100818.22;;;25.46
15544;BMP180;7873;52.230;12.856;2022-07-30T01:57:00;100814.50;;;25.47
15544;BMP180;7873;52.230;12.856;2022-07-30T01:59:27;100810.50;;;25.43
15544;BMP180;7873;52.230;12.856;2022-07-30T02:01:57;100813.13;;;25.37
15544;BMP180;7873;52.230;12.856;2022-07-30T02:04:24;100809.41;;;25.38
15544;BMP180;7873;52.230;12.856;2022-07-30T02:06:56;100808.84;;;25.42
15544;BMP180;7873;52.230;12.856;2022-07-30T02:09:28;100812.19;;;25.44
15544;BMP180;7873;52.230;12.856;2022-07-30T02:11:57;100814.88;;;25.44
15544;BMP180;7873;52.230;12.856;2022-07-30T02:14:47;100813.47;;;25.48
15544;BMP180;7873;52.230;12.856;2022-07-30T02:17:20;100806.19;;;25.49
15544;BMP180;7873;52.230;12.856;2022-07-30T02:19:50;100805.56;;;25.47
15544;BMP180;7873;52.230;12.856;2022-07-30T02:22:18;100806.78;;;25.44
15544;BMP180;7873;52.230;12.856;2022-07-30T02:24:46;100800.53;;;25.44
15544;BMP180;7873;52.230;12.856;2022-07-30T02:27:15;100810.22;;;25.38
15544;BMP180;7873;52.230;12.856;2022-07-30T02:29:45;100808.56;;;25.37
15544;BMP180;7873;52.230;12.856;2022-07-30T02:32:15;100812.28;;;25.36
15544;BMP180;7873;52.230;12.856;2022-07-30T02:34:47;100810.81;;;25.34
15544;BMP180;7873;52.230;12.856;2022-07-30T02:37:18;100808.50;;;25.31
15544;BMP180;7873;52.230;12.856;2022-07-30T02:39:48;100804.78;;;25.32
15544;BMP180;7873;52.230;12.856;2022-07-30T02:42:17;100809.31;;;25.31
15544;BMP180;7873;52.230;12.856;2022-07-30T02:44:45;100814.06;;;25.29
15544;BMP180;7873;52.230;12.856;2022-07-30T02:47:13;100810.34;;;25.30
15544;BMP180;7873;52.230;12.856;2022-07-30T02:49:41;100809.97;;;25.33
15544;BMP180;7873;52.230;12.856;2022-07-30T02:52:12;100811.56;;;25.28
15544;BMP180;7873;52.230;12.856;2022-07-30T02:54:42;100809.06;;;25.26
15544;BMP180;7873;52.230;12.856;2022-07-30T02:57:09;100806.84;;;25.30
15544;BMP180;7873;52.230;12.856;2022-07-30T02:59:39;100804.31;;;25.28
15544;BMP180;7873;52.230;12.856;2022-07-30T03:02:07;100804.31;;;25.28
15544;BMP180;7873;52.230;12.856;2022-07-30T03:04:35;100809.72;;;25.28
15544;BMP180;7873;52.230;12.856;2022-07-30T03:07:04;100805.13;;;25.29
15544;BMP180;7873;52.230;12.856;2022-07-30T03:09:32;100807.41;;;25.25
15544;BMP180;7873;52.230;12.856;2022-07-30T03:12:00;100811.28;;;25.23
15544;BMP180;7873;52.230;12.856;2022-07-30T03:14:29;100810.66;;;25.21
15544;BMP180;7873;52.230;12.856;2022-07-30T03:16:57;100804.44;;;25.20
15544;BMP180;7873;52.230;12.856;2022-07-30T03:19:28;100815.53;;;25.17
15544;BMP180;7873;52.230;12.856;2022-07-30T03:21:57;100808.84;;;25.13
15544;BMP180;7873;52.230;12.856;2022-07-30T03:24:27;100811.75;;;25.12
15544;BMP180;7873;52.230;12.856;2022-07-30T03:26:57;100812.97;;;25.09
15544;BMP180;7873;52.230;12.856;2022-07-30T03:29:26;100814.84;;;25.09
15544;BMP180;7873;52.230;12.856;2022-07-30T03:31:54;100808.81;;;25.07
15544;BMP180;7873;52.230;12.856;2022-07-30T03:34:21;100812.97;;;25.09
15544;BMP180;7873;52.230;12.856;2022-07-30T03:36:49;100820.41;;;25.07
15544;BMP180;7873;52.230;12.856;2022-07-30T03:39:17;100820.94;;;25.03
15544;BMP180;7873;52.230;12.856;2022-07-30T03:41:44;100823.28;;;25.06
15544;BMP180;7873;52.230;12.856;2022-07-30T03:44:13;100818.25;;;25.03
15544;BMP180;7873;52.230;12.856;2022-07-30T03:46:41;100820.91;;;24.96
15544;BMP180;7873;52.230;12.856;2022-07-30T03:49:08;100823.38;;;24.98
15544;BMP180;7873;52.230;12.856;2022-07-30T03:51:36;100828.97;;;24.96
15544;BMP180;7873;52.230;12.856;2022-07-30T03:54:03;100823.13;;;24.93
15544;BMP180;7873;52.230;12.856;2022-07-30T03:56:34;100827.31;;;24.95
15544;BMP180;7873;52.230;12.856;2022-07-30T03:59:00;100825.44;;;24.96
15544;BMP180;7873;52.230;12.856;2022-07-30T04:01:29;100837.41;;;24.93
15544;BMP180;7873;52.230;12.856;2022-07-30T04:04:03;100835.94;;;24.91
15544;BMP180;7873;52.230;12.856;2022-07-30T04:06:29;100844.03;;;24.91
15544;BMP180;7873;52.230;12.856;2022-07-30T04:08:56;100837.13;;;24.88
15544;BMP180;7873;52.230;12.856;2022-07-30T04:11:23;100839.44;;;24.91
15544;BMP180;7873;52.230;12.856;2022-07-30T04:13:49;100837.78;;;24.90
15544;BMP180;7873;52.230;12.856;2022-07-30T04:16:19;100833.63;;;24.88
15544;BMP180;7873;52.230;12.856;2022-07-30T04:18:52;100828.03;;;24.89
15544;BMP180;7873;52.230;12.856;2022-07-30T04:21:22;100839.56;;;24.83
15544;BMP180;7873;52.230;12.856;2022-07-30T04:23:51;100838.53;;;24.84
15544;BMP180;7873;52.230;12.856;2022-07-30T04:26:19;100843.81;;;24.78
15544;BMP180;7873;52.230;12.856;2022-07-30T04:28:46;100839.66;;;24.75
15544;BMP180;7873;52.230;12.856;2022-07-30T04:31:13;100848.94;;;24.73
15544;BMP180;7873;52.230;12.856;2022-07-30T04:33:44;100845.69;;;24.77
15544;BMP180;7873;52.230;12.856;2022-07-30T04:36:12;100848.56;;;24.76
15544;BMP180;7873;52.230;12.856;2022-07-30T04:38:40;100847.53;;;24.77
15544;BMP180;7873;52.230;12.856;2022-07-30T04:41:07;100855.06;;;24.81
15544;BMP180;7873;52.230;12.856;2022-07-30T04:43:33;100852.56;;;24.80
15544;BMP180;7873;52.230;12.856;2022-07-30T04:46:00;100854.97;;;24.89
15544;BMP180;7873;52.230;12.856;2022-07-30T04:48:27;100850.53;;;24.96
15544;BMP180;7873;52.230;12.856;2022-07-30T04:50:56;100848.19;;;24.93
15544;BMP180;7873;52.230;12.856;2022-07-30T04:53:26;100849.13;;;25.00
15544;BMP180;7873;52.230;12.856;2022-07-30T04:55:54;100854.91;;;24.97
15544;BMP180;7873;52.230;12.856;2022-07-30T04:58:23;100861.19;;;25.04
15544;BMP180;7873;52.230;12.856;2022-07-30T05:00:52;100851.06;;;25.06
15544;BMP180;7873;52.230;12.856;2022-07-30T05:03:20;100851.72;;;25.08
15544;BMP180;7873;52.230;12.856;2022-07-30T05:05:48;100855.34;;;25.01
15544;BMP180;7873;52.230;12.856;2022-07-30T05:08:16;100852.28;;;24.89
15544;BMP180;7873;52.230;12.856;2022-07-30T05:10:44;100861.22;;;24.90
15544;BMP180;7873;52.230;12.856;2022-07-30T05:13:11;100854.16;;;24.89
15544;BMP180;7873;52.230;12.856;2022-07-30T05:15:38;100865.66;;;24.97
15544;BMP180;7873;52.230;12.856;2022-07-30T05:18:06;100857.00;;;25.02
15544;BMP180;7873;52.230;12.856;2022-07-30T05:20:33;100866.22;;;25.07
15544;BMP180;7873;52.230;12.856;2022-07-30T05:22:59;100866.47;;;25.12
15544;BMP180;7873;52.230;12.856;2022-07-30T05:25:26;100867.97;;;25.15
15544;BMP180;7873;52.230;12.856;2022-07-30T05:27:54;100862.38;;;25.16
15544;BMP180;7873;52.230;12.856;2022-07-30T05:30:22;100860.19;;;25.20
15544;BMP180;7873;52.230;12.856;2022-07-30T05:32:49;100865.19;;;25.23
15544;BMP180;7873;52.230;12.856;2022-07-30T05:35:16;100860.44;;;25.25
15544;BMP180;7873;52.230;12.856;2022-07-30T05:37:43;100859.44;;;25.26
15544;BMP180;7873;52.230;12.856;2022-07-30T05:40:11;100853.66;;;25.29
15544;BMP180;7873;52.230;12.856;2022-07-30T05:42:37;100859.72;;;25.31
15544;BMP180;7873;52.230;12.856;2022-07-30T05:45:06;100868.44;;;25.33
15544;BMP180;7873;52.230;12.856;2022-07-30T05:47:33;100874.66;;;25.33
15544;BMP180;7873;52.230;12.856;2022-07-30T05:50:00;100869.91;;;25.35
15544;BMP180;7873;52.230;12.856;2022-07-30T05:52:26;100869.53;;;25.38
15544;BMP180;7873;52.230;12.856;2022-07-30T05:54:54;100865.63;;;25.41
15544;BMP180;7873;52.230;12.856;2022-07-30T05:57:20;100863.22;;;25.46
15544;BMP180;7873;52.230;12.856;2022-07-30T05:59:47;100862.81;;;25.49
15544;BMP180;7873;52.230;12.856;2022-07-30T06:02:16;100869.88;;;25.50
15544;BMP180;7873;52.230;12.856;2022-07-30T06:04:42;100869.06;;;25.49
15544;BMP180;7873;52.230;12.856;2022-07-30T06:07:09;100871.56;;;25.51
15544;BMP180;7873;52.230;12.856;2022-07-30T06:09:36;100869.53;;;25.53
15544;BMP180;7873;52.230;12.856;2022-07-30T06:12:03;100863.53;;;25.57
15544;BMP180;7873;52.230;12.856;2022-07-30T06:14:30;100871.47;;;25.58
15544;BMP180;7873;52.230;12.856;2022-07-30T06:16:57;100876.00;;;25.58
15544;BMP180;7873;52.230;12.856;2022-07-30T06:19:25;100871.00;;;25.55
15544;BMP180;7873;52.230;12.856;2022-07-30T06:21:52;100876.66;;;25.60
15544;BMP180;7873;52.230;12.856;2022-07-30T06:24:18;100872.22;;;25.53
15544;BMP180;7873;52.230;12.856;2022-07-30T06:26:45;100874.72;;;25.54
15544;BMP180;7873;52.230;12.856;2022-07-30T06:29:11;100874.06;;;25.52
15544;BMP180;7873;52.230;12.856;2022-07-30T06:31:38;100883.19;;;25.51
15544;BMP180;7873;52.230;12.856;2022-07-30T06:34:06;100882.81;;;25.54
15544;BMP180;7873;52.230;12.856;2022-07-30T06:36:34;100877.97;;;25.50
15544;BMP180;7873;52.230;12.856;2022-07-30T06:39:00;100888.06;;;25.41
15544;BMP180;7873;52.230;12.856;2022-07-30T06:41:27;100885.63;;;25.46
15544;BMP180;7873;52.230;12.856;2022-07-30T06:43:54;100882.94;;;25.46
15544;BMP180;7873;52.230;12.856;2022-07-30T06:46:20;100887.69;;;25.44
15544;BMP180;7873;52.230;12.856;2022-07-30T06:48:47;100881.16;;;25.39
15544;BMP180;7873;52.230;12.856;2022-07-30T06:51:14;100875.31;;;25.35
15544;BMP180;7873;52.230;12.856;2022-07-30T06:53:42;100873.47;;;25.36
15544;BMP180;7873;52.230;12.856;2022-07-30T06:56:10;100884.50;;;25.41
15544;BMP180;7873;52.230;12.856;2022-07-30T06:58:37;100881.06;;;25.47
15544;BMP180;7873;52.230;12.856;2022-07-30T07:01:03;100885.81;;;25.45
15544;BMP180;7873;52.230;12.856;2022-07-30T07:03:30;100889.34;;;25.45
15544;BMP180;7873;52.230;12.856;2022-07-30T07:05:57;100886.69;;;25.52
15544;BMP180;7873;52.230;12.856;2022-07-30T07:08:24;100889.06;;;25.55
15544;BMP180;7873;52.230;12.856;2022-07-30T07:10:52;100882.63;;;25.56
15544;BMP180;7873;52.230;12.856;2022-07-30T07:13:19;100884.47;;;25.55
15544;BMP180;7873;52.230;12.856;2022-07-30T07:15:45;100880.56;;;25.58
15544;BMP180;7873;52.230;12.856;2022-07-30T07:18:12;100882.25;;;25.58
15544;BMP180;7873;52.230;12.856;2022-07-30T07:20:39;100880.38;;;25.59
15544;BMP180;7873;52.230;12.856;2022-07-30T07:23:07;100891.63;;;25.62
15544;BMP180;7873;52.230;12.856;2022-07-30T07:25:35;100883.72;;;25.61
15544;BMP180;7873;52.230;12.856;2022-07-30T07:28:03;100892.00;;;25.59
15544;BMP180;7873;52.230;12.856;2022-07-30T07:30:30;100890.72;;;25.56
15544;BMP180;7873;52.230;12.856;2022-07-30T07:32:57;100889.78;;;25.49
15544;BMP180;7873;52.230;12.856;2022-07-30T07:35:23;100896.84;;;25.50
15544;BMP180;7873;52.230;12.856;2022-07-30T07:37:50;100891.28;;;25.51
15544;BMP180;7873;52.230;12.856;2022-07-30T07:40:17;100889.22;;;25.53
15544;BMP180;7873;52.230;12.856;2022-07-30T07:42:43;100893.59;;;25.54
15544;BMP180;7873;52.230;12.856;2022-07-30T07:45:11;100897.31;;;25.53
15544;BMP180;7873;52.230;12.856;2022-07-30T07:47:42;100891.53;;;25.56
15544;BMP180;7873;52.230;12.856;2022-07-30T07:50:09;100895.09;;;25.57
15544;BMP180;7873;52.230;12.856;2022-07-30T07:52:35;100896.28;;;25.54
15544;BMP180;7873;52.230;12.856;2022-07-30T07:55:02;100893.59;;;25.54
15544;BMP180;7873;52.230;12.856;2022-07-30T07:57:29;100887.19;;;25.55
15544;BMP180;7873;52.230;12.856;2022-07-30T07:59:56;100884.09;;;25.58
15544;BMP180;7873;52.230;12.856;2022-07-30T08:02:24;100889.94;;;25.61
15544;BMP180;7873;52.230;12.856;2022-07-30T08:04:50;100873.38;;;25.64
15544;BMP180;7873;52.230;12.856;2022-07-30T08:07:18;100878.22;;;25.69
15544;BMP180;7873;52.230;12.856;2022-07-30T08:09:45;100878.00;;;25.70
15544;BMP180;7873;52.230;12.856;2022-07-30T08:12:12;100881.34;;;25.72
15544;BMP180;7873;52.230;12.856;2022-07-30T08:14:39;100871.59;;;25.71
15544;BMP180;7873;52.230;12.856;2022-07-30T08:17:05;100878.00;;;25.70
15544;BMP180;7873;52.230;12.856;2022-07-30T08:19:33;100880.72;;;25.70
15544;BMP180;7873;52.230;12.856;2022-07-30T08:22:00;100888.16;;;25.68
15544;BMP180;7873;52.230;12.856;2022-07-30T08:24:27;100884.19;;;25.64
15544;BMP180;7873;52.230;12.856;2022-07-30T08:26:53;100880.38;;;25.59
15544;BMP180;7873;52.230;12.856;2022-07-30T08:29:20;100879.34;;;25.60
15544;BMP180;7873;52.230;12.856;2022-07-30T08:31:47;100875.56;;;25.55
15544;BMP180;7873;52.230;12.856;2022-07-30T08:34:13;100872.47;;;25.58
15544;BMP180;7873;52.230;12.856;2022-07-30T08:36:41;100880.75;;;25.56
15544;BMP180;7873;52.230;12.856;2022-07-30T08:39:08;100878.44;;;25.53
15544;BMP180;7873;52.230;12.856;2022-07-30T08:41:35;100874.06;;;25.52
15544;BMP180;7873;52.230;12.856;2022-07-30T08:44:03;100871.19;;;25.54
15544;BMP180;7873;52.230;12.856;2022-07-30T08:46:30;100882.81;;;25.54
15544;BMP180;7873;52.230;12.856;2022-07-30T08:48:59;100880.31;;;25.53
15544;BMP180;7873;52.230;12.856;2022-07-30T08:51:25;100880.50;;;25.51
15544;BMP180;7873;52.230;12.856;2022-07-30T08:53:55;100877.41;;;25.54
15544;BMP180;7873;52.230;12.856;2022-07-30T08:56:22;100879.09;;;25.55
15544;BMP180;7873;52.230;12.856;2022-07-30T08:58:49;100883.66;;;25.55
15544;BMP180;7873;52.230;12.856;2022-07-30T09:01:16;100888.84;;;25.56
15544;BMP180;7873;52.230;12.856;2022-07-30T09:03:43;100875.75;;;25.53
15544;BMP180;7873;52.230;12.856;2022-07-30T09:06:10;100879.56;;;25.58
15544;BMP180;7873;52.230;12.856;2022-07-30T09:08:37;100878.31;;;25.61
15544;BMP180;7873;52.230;12.856;2022-07-30T09:11:05;100875.44;;;25.62
15544;BMP180;7873;52.230;12.856;2022-07-30T09:13:34;100878.13;;;25.62
15544;BMP180;7873;52.230;12.856;2022-07-30T09:16:02;100876.09;;;25.64
15544;BMP180;7873;52.230;12.856;2022-07-30T09:18:33;100876.72;;;25.66
15544;BMP180;7873;52.230;12.856;2022-07-30T09:21:12;100868.25;;;25.69
15544;BMP180;7873;52.230;12.856;2022-07-30T09:23:39;100887.34;;;25.68
15544;BMP180;7873;52.230;12.856;2022-07-30T09:26:07;100876.56;;;25.68
15544;BMP180;7873;52.230;12.856;2022-07-30T09:28:33;100876.56;;;25.68
15544;BMP180;7873;52.230;12.856;2022-07-30T09:31:00;100872.81;;;25.69
15544;BMP180;7873;52.230;12.856;2022-07-30T09:33:32;100874.88;;;25.67
15544;BMP180;7873;52.230;12.856;2022-07-30T09:36:00;100874.88;;;25.67
15544;BMP180;7873;52.230;12.856;2022-07-30T09:38:27;100878.88;;;25.71
15544;BMP180;7873;52.230;12.856;2022-07-30T09:40:54;100871.16;;;25.68
15544;BMP180;7873;52.230;12.856;2022-07-30T09:43:23;100876.16;;;25.71
15544;BMP180;7873;52.230;12.856;2022-07-30T09:45:50;100879.69;;;25.71
15544;BMP180;7873;52.230;12.856;2022-07-30T09:48:20;100872.81;;;25.69
15544;BMP180;7873;52.230;12.856;2022-07-30T09:50:47;100872.19;;;25.67
15544;BMP180;7873;52.230;12.856;2022-07-30T09:53:14;100879.03;;;25.69
15544;BMP180;7873;52.230;12.856;2022-07-30T09:55:41;100869.50;;;25.67
15544;BMP180;7873;52.230;12.856;2022-07-30T09:58:08;100872.53;;;25.64
15544;BMP180;7873;52.230;12.856;2022-07-30T10:00:37;100873.78;;;25.61
15544;BMP180;7873;52.230;12.856;2022-07-30T10:03:14;100870.31;;;25.67
15544;BMP180;7873;52.230;12.856;2022-07-30T10:05:49;100873.47;;;25.71
15544;BMP180;7873;52.230;12.856;2022-07-30T10:08:16;100874.50;;;25.70
15544;BMP180;7873;52.230;12.856;2022-07-30T10:10:43;100863.72;;;25.70
15544;BMP180;7873;52.230;12.856;2022-07-30T10:13:13;100867.03;;;25.72
15544;BMP180;7873;52.230;12.856;2022-07-30T10:15:42;100859.59;;;25.74
15544;BMP180;7873;52.230;12.856;2022-07-30T10:18:09;100857.06;;;25.72
15544;BMP180;7873;52.230;12.856;2022-07-30T10:20:37;100864.34;;;25.72
15544;BMP180;7873;52.230;12.856;2022-07-30T10:23:05;100866.28;;;25.78
15544;BMP180;7873;52.230;12.856;2022-07-30T10:25:33;100865.53;;;25.84
15544;BMP180;7873;52.230;12.856;2022-07-30T10:28:00;100866.84;;;25.88
15544;BMP180;7873;52.230;12.856;2022-07-30T10:30:28;100869.16;;;25.91
15544;BMP180;7873;52.230;12.856;2022-07-30T10:32:57;100869.78;;;25.93
15544;BMP180;7873;52.230;12.856;2022-07-30T10:35:24;100866.69;;;25.96
15544;BMP180;7873;52.230;12.856;2022-07-30T10:37:52;100858.69;;;26.02
15544;BMP180;7873;52.230;12.856;2022-07-30T10:40:26;100853.69;;;26.06
15544;BMP180;7873;52.230;12.856;2022-07-30T10:43:13;100856.00;;;26.09
15544;BMP180;7873;52.230;12.856;2022-07-30T10:45:46;100853.47;;;26.01
15544;BMP180;7873;52.230;12.856;2022-07-30T10:48:19;100859.00;;;25.93
15544;BMP180;7873;52.230;12.856;2022-07-30T10:50:49;100858.16;;;25.92
15544;BMP180;7873;52.230;12.856;2022-07-30T10:53:32;100865.66;;;25.97
15544;BMP180;7873;52.230;12.856;2022-07-30T10:56:12;100853.22;;;25.96
15544;BMP180;7873;52.230;12.856;2022-07-30T10:58:59;100855.34;;;26.00
15544;BMP180;7873;52.230;12.856;2022-07-30T11:04:33;100848.53;;;26.04
15544;BMP180;7873;52.230;12.856;2022-07-30T11:07:26;100855.84;;;26.10
15544;BMP180;7873;52.230;12.856;2022-07-30T11:09:55;100858.53;;;26.10
15544;BMP180;7873;52.230;12.856;2022-07-30T11:15:22;100850.81;;;26.07
15544;BMP180;7873;52.230;12.856;2022-07-30T11:18:00;100857.03;;;26.08
15544;BMP180;7873;52.230;12.856;2022-07-30T11:20:29;100856.47;;;26.12
15544;BMP180;7873;52.230;12.856;2022-07-30T11:23:08;100861.94;;;26.19
15544;BMP180;7873;52.230;12.856;2022-07-30T11:25:39;100855.75;;;26.25
15544;BMP180;7873;52.230;12.856;2022-07-30T11:28:34;100849.78;;;26.29
15544;BMP180;7873;52.230;12.856;2022-07-30T11:31:02;100843.78;;;26.34
15544;BMP180;7873;52.230;12.856;2022-07-30T11:33:29;100856.06;;;26.36
15544;BMP180;7873;52.230;12.856;2022-07-30T11:36:09;100855.47;;;26.41
15544;BMP180;7873;52.230;12.856;2022-07-30T11:38:53;100857.78;;;26.44
15544;BMP180;7873;52.230;12.856;2022-07-30T11:41:20;100851.81;;;26.48
15544;BMP180;7873;52.230;12.856;2022-07-30T11:43:47;100845.81;;;26.53
15544;BMP180;7873;52.230;12.856;2022-07-30T11:46:15;100845.41;;;26.56
15544;BMP180;7873;52.230;12.856;2022-07-30T11:48:54;100851.66;;;26.56
15544;BMP180;7873;52.230;12.856;2022-07-30T11:51:23;100848.13;;;26.56
15544;BMP180;7873;52.230;12.856;2022-07-30T11:54:00;100850.19;;;26.54
15544;BMP180;7873;52.230;12.856;2022-07-30T11:56:27;100850.19;;;26.54
15544;BMP180;7873;52.230;12.856;2022-07-30T11:59:00;100855.59;;;26.54
15544;BMP180;7873;52.230;12.856;2022-07-30T12:01:27;100846.84;;;26.52
15544;BMP180;7873;52.230;12.856;2022-07-30T12:03:55;100847.88;;;26.51
15544;BMP180;7873;52.230;12.856;2022-07-30T12:06:23;100842.06;;;26.47
15544;BMP180;7873;52.230;12.856;2022-07-30T12:08:51;100845.59;;;26.48
15544;BMP180;7873;52.230;12.856;2022-07-30T12:11:18;100847.06;;;26.50
15544;BMP180;7873;52.230;12.856;2022-07-30T12:13:54;100848.72;;;26.51
15544;BMP180;7873;52.230;12.856;2022-07-30T12:16:21;100846.84;;;26.52
15544;BMP180;7873;52.230;12.856;2022-07-30T12:18:48;100854.78;;;26.53
15544;BMP180;7873;52.230;12.856;2022-07-30T12:21:14;100854.78;;;26.53
15544;BMP180;7873;52.230;12.856;2022-07-30T12:23:52;100855.81;;;26.52
15544;BMP180;7873;52.230;12.856;2022-07-30T12:26:20;100838.56;;;26.53
15544;BMP180;7873;52.230;12.856;2022-07-30T12:28:47;100842.94;;;26.54
15544;BMP180;7873;52.230;12.856;2022-07-30T12:31:15;100848.13;;;26.56
15544;BMP180;7873;52.230;12.856;2022-07-30T12:33:42;100846.66;;;26.53
15544;BMP180;7873;52.230;12.856;2022-07-30T12:36:09;100843.50;;;26.50
15544;BMP180;7873;52.230;12.856;2022-07-30T12:38:49;100844.53;;;26.49
15544;BMP180;7873;52.230;12.856;2022-07-30T12:41:19;100846.59;;;26.47
15544;BMP180;7873;52.230;12.856;2022-07-30T12:43:47;100842.06;;;26.47
15544;BMP180;7873;52.230;12.856;2022-07-30T12:46:17;100838.31;;;26.48
15544;BMP180;7873;52.230;12.856;2022-07-30T12:48:48;100841.84;;;26.49
15544;BMP180;7873;52.230;12.856;2022-07-30T12:51:15;100838.31;;;26.48
15544;BMP180;7873;52.230;12.856;2022-07-30T12:53:41;100827.53;;;26.48
15544;BMP180;7873;52.230;12.856;2022-07-30T12:56:11;100841.44;;;26.52
15544;BMP180;7873;52.230;12.856;2022-07-30T12:58:38;100835.00;;;26.53
15544;BMP180;7873;52.230;12.856;2022-07-30T13:01:05;100835.00;;;26.53
15544;BMP180;7873;52.230;12.856;2022-07-30T13:03:32;100835.00;;;26.53
15544;BMP180;7873;52.230;12.856;2022-07-30T13:06:14;100845.63;;;26.54
15544;BMP180;7873;52.230;12.856;2022-07-30T13:08:49;100848.50;;;26.53
15544;BMP180;7873;52.230;12.856;2022-07-30T13:11:19;100840.41;;;26.53
15544;BMP180;7873;52.230;12.856;2022-07-30T13:13:47;100835.00;;;26.53
15544;BMP180;7873;52.230;12.856;2022-07-30T13:16:13;100839.59;;;26.52
15544;BMP180;7873;52.230;12.856;2022-07-30T13:18:40;100832.94;;;26.55
15544;BMP180;7873;52.230;12.856;2022-07-30T13:21:08;100831.28;;;26.54
15544;BMP180;7873;52.230;12.856;2022-07-30T13:23:35;100831.28;;;26.54
15544;BMP180;7873;52.230;12.856;2022-07-30T13:26:03;100840.00;;;26.56
15544;BMP180;7873;52.230;12.856;2022-07-30T13:28:32;100830.06;;;26.56
15544;BMP180;7873;52.230;12.856;2022-07-30T13:31:00;100832.13;;;26.54
15544;BMP180;7873;52.230;12.856;2022-07-30T13:33:27;100829.59;;;26.53
15544;BMP180;7873;52.230;12.856;2022-07-30T13:35:53;100828.16;;;26.50
15544;BMP180;7873;52.230;12.856;2022-07-30T13:38:20;100832.94;;;26.48
15544;BMP180;7873;52.230;12.856;2022-07-30T13:40:47;100834.59;;;26.49
15544;BMP180;7873;52.230;12.856;2022-07-30T13:43:14;100833.75;;;26.49
15544;BMP180;7873;52.230;12.856;2022-07-30T13:45:42;100826.28;;;26.51
15544;BMP180;7873;52.230;12.856;2022-07-30T13:48:09;100823.38;;;26.52
15544;BMP180;7873;52.230;12.856;2022-07-30T13:50:36;100823.78;;;26.49
15544;BMP180;7873;52.230;12.856;2022-07-30T13:53:03;100822.75;;;26.50
15544;BMP180;7873;52.230;12.856;2022-07-30T13:55:29;100833.16;;;26.53
15544;BMP180;7873;52.230;12.856;2022-07-30T13:57:56;100838.16;;;26.56
15544;BMP180;7873;52.230;12.856;2022-07-30T14:00:23;100830.25;;;26.55
15544;BMP180;7873;52.230;12.856;2022-07-30T14:02:51;100819.25;;;26.56
15544;BMP180;7873;52.230;12.856;2022-07-30T14:05:18;100824.25;;;26.59
15544;BMP180;7873;52.230;12.856;2022-07-30T14:07:45;100824.25;;;26.59
15544;BMP180;7873;52.230;12.856;2022-07-30T14:10:12;100825.09;;;26.60